createdAt,value
2023-04-18T00:02:45.784Z,9.76
2023-04-18T00:08:06.491Z,9.83
2023-04-18T00:13:28.346Z,9.92
2023-04-18T00:18:48.785Z,9.92
2023-04-18T00:24:09.188Z,9.86
2023-04-18T00:29:31.745Z,9.84
2023-04-18T00:34:52.135Z,9.82
2023-04-18T00:40:14.000Z,9.78
2023-04-18T00:45:35.679Z,9.71
2023-04-18T00:50:57.191Z,9.70
2023-04-18T00:56:17.821Z,9.63
2023-04-18T01:01:40.190Z,9.60
2023-04-18T01:07:02.212Z,9.56
2023-04-18T01:12:23.134Z,9.53
2023-04-18T01:17:43.822Z,9.49
2023-04-18T01:23:04.449Z,9.42
2023-04-18T01:28:27.770Z,9.36
2023-04-18T01:33:49.771Z,9.32
2023-04-18T01:39:10.465Z,9.27
2023-04-18T01:44:56.917Z,9.21
2023-04-18T01:50:17.492Z,9.20
2023-04-18T01:55:38.152Z,9.19
2023-04-18T02:00:59.434Z,9.14
2023-04-18T02:06:20.486Z,9.15
2023-04-18T02:11:41.795Z,9.13
2023-04-18T02:17:02.563Z,9.09
2023-04-18T02:22:23.172Z,9.10
2023-04-18T02:27:44.645Z,9.09
2023-04-18T02:33:05.504Z,9.07
2023-04-18T02:38:25.732Z,9.04
2023-04-18T02:43:46.651Z,9.03
2023-04-18T02:49:15.582Z,8.99
2023-04-18T02:54:37.730Z,8.99
2023-04-18T03:00:04.603Z,8.92
2023-04-18T03:05:51.849Z,8.85
2023-04-18T03:11:13.088Z,8.81
2023-04-18T03:16:33.964Z,8.80
2023-04-18T03:21:56.789Z,8.76
2023-04-18T03:27:17.465Z,8.74
2023-04-18T03:32:42.186Z,8.72
2023-04-18T03:38:02.969Z,8.70
2023-04-18T03:43:27.238Z,8.67
2023-04-18T03:48:48.517Z,8.61
2023-04-18T03:54:09.032Z,8.58
2023-04-18T03:59:29.908Z,8.55
2023-04-18T04:04:50.756Z,8.55
2023-04-18T04:10:11.454Z,8.55
2023-04-18T04:15:32.090Z,8.54
2023-04-18T04:20:59.103Z,8.55
2023-04-18T04:26:36.853Z,8.53
2023-04-18T04:32:06.706Z,8.52
2023-04-18T04:37:33.477Z,8.53
2023-04-18T04:43:05.498Z,8.55
2023-04-18T04:48:31.227Z,8.58
2023-04-18T04:53:51.629Z,8.62
2023-04-18T04:59:12.439Z,8.64
2023-04-18T05:04:36.196Z,8.59
2023-04-18T05:09:57.060Z,8.61
2023-04-18T05:15:20.434Z,8.61
2023-04-18T05:20:43.320Z,8.63
2023-04-18T05:26:05.100Z,8.61
2023-04-18T05:31:26.758Z,8.60
2023-04-18T05:36:47.863Z,8.68
2023-04-18T05:42:08.437Z,8.73
2023-04-18T05:47:30.267Z,8.91
2023-04-18T05:52:50.955Z,9.04
2023-04-18T05:58:11.422Z,9.19
2023-04-18T06:03:32.153Z,9.27
2023-04-18T06:08:54.225Z,9.37
2023-04-18T06:14:14.982Z,9.47
2023-04-18T06:19:35.753Z,9.58
2023-04-18T06:24:56.423Z,9.62
2023-04-18T06:30:16.940Z,9.80
2023-04-18T06:35:38.041Z,9.92
2023-04-18T06:40:58.947Z,10.05
2023-04-18T06:46:19.676Z,10.15
2023-04-18T06:51:40.600Z,10.25
2023-04-18T06:57:03.685Z,10.35
2023-04-18T07:02:24.330Z,10.45
2023-04-18T07:07:45.368Z,10.60
2023-04-18T07:13:06.058Z,10.77
2023-04-18T07:18:37.433Z,10.95
2023-04-18T07:23:58.634Z,11.14
2023-04-18T07:29:19.559Z,11.25
2023-04-18T07:34:40.341Z,11.35
2023-04-18T07:40:00.983Z,11.45
2023-04-18T07:45:21.825Z,11.64
2023-04-18T07:50:42.509Z,11.78
2023-04-18T07:56:03.097Z,11.90
2023-04-18T08:01:24.701Z,12.08
2023-04-18T08:06:45.168Z,12.22
2023-04-18T08:12:05.800Z,12.43
2023-04-18T08:17:26.652Z,12.74
2023-04-18T08:23:05.193Z,12.83
2023-04-18T08:28:28.970Z,12.98
2023-04-18T08:33:49.567Z,13.17
2023-04-18T08:39:10.188Z,13.41
2023-04-18T08:44:31.296Z,13.66
2023-04-18T08:49:52.165Z,13.91
2023-04-18T08:55:12.760Z,14.16
2023-04-18T09:00:34.101Z,14.33
2023-04-18T09:06:10.013Z,14.53
2023-04-18T09:19:54.515Z,15.18
2023-04-18T09:25:35.690Z,15.44
2023-04-18T09:30:57.626Z,15.79
2023-04-18T09:36:22.054Z,16.01
2023-04-18T09:41:58.423Z,16.20
2023-04-18T09:47:19.158Z,16.64
2023-04-18T09:52:41.797Z,17.22
2023-04-18T09:58:04.741Z,17.63
2023-04-18T10:03:34.512Z,18.02
2023-04-18T10:08:55.583Z,18.27
2023-04-18T10:14:17.343Z,18.51
2023-04-18T10:19:41.922Z,19.01
2023-04-18T10:25:02.656Z,19.34
2023-04-18T10:38:23.633Z,20.43
2023-04-18T10:44:23.692Z,21.35
2023-04-18T10:49:54.730Z,25.01
2023-04-18T10:55:18.685Z,36.67
2023-04-18T11:00:39.131Z,42.60
2023-04-18T11:06:03.256Z,46.27
2023-04-18T11:11:24.573Z,47.72
2023-04-18T11:16:45.202Z,49.29
2023-04-18T11:22:05.588Z,49.68
2023-04-18T11:27:26.887Z,51.63
2023-04-18T11:32:47.694Z,52.99
2023-04-18T11:38:10.245Z,52.22
2023-04-18T11:43:30.895Z,51.11
2023-04-18T11:48:51.708Z,50.86
2023-04-18T11:54:38.670Z,51.45
2023-04-18T12:00:00.765Z,52.76
2023-04-18T12:05:26.529Z,51.71
2023-04-18T12:10:48.471Z,50.06
2023-04-18T12:16:09.033Z,49.28
2023-04-18T12:21:30.142Z,49.71
2023-04-18T12:26:50.904Z,49.01
2023-04-18T12:32:11.499Z,49.62
2023-04-18T12:37:32.077Z,50.11
2023-04-18T12:42:53.987Z,51.38
2023-04-18T12:48:14.657Z,50.46
2023-04-18T12:53:35.514Z,50.13
2023-04-18T12:58:55.799Z,49.12
2023-04-18T13:04:16.696Z,49.63
2023-04-18T13:09:37.555Z,50.09
2023-04-18T13:14:58.081Z,51.83
2023-04-18T13:20:18.960Z,51.59
2023-04-18T13:25:41.282Z,50.92
2023-04-18T13:31:02.091Z,50.91
2023-04-18T13:36:23.588Z,47.77
2023-04-18T13:41:44.316Z,43.05
2023-04-18T13:47:06.392Z,49.08
2023-04-18T13:52:26.913Z,53.15
2023-04-18T13:57:47.679Z,55.60
2023-04-18T14:03:08.236Z,57.41
2023-04-18T14:08:29.309Z,56.10
2023-04-18T14:13:49.813Z,55.06
2023-04-18T14:26:41.537Z,56.83
2023-04-18T14:32:02.651Z,58.34
2023-04-18T14:37:24.223Z,58.61
2023-04-18T14:42:44.696Z,58.21
2023-04-18T14:48:06.810Z,58.70
2023-04-18T14:53:28.796Z,58.60
2023-04-18T14:58:49.856Z,58.32
2023-04-18T15:04:10.877Z,56.89
2023-04-18T15:09:36.639Z,53.38
2023-04-18T15:14:58.912Z,50.86
2023-04-18T15:20:21.845Z,49.02
2023-04-18T15:25:44.776Z,46.72
2023-04-18T15:31:05.904Z,45.19
2023-04-18T15:36:27.671Z,39.25
2023-04-18T15:41:52.746Z,33.30
2023-04-18T15:47:14.521Z,29.82
2023-04-18T15:52:35.080Z,28.30
2023-04-18T15:57:55.792Z,26.45
2023-04-18T16:03:17.106Z,24.82
2023-04-18T16:08:38.019Z,23.66
2023-04-18T16:13:58.571Z,22.48
2023-04-18T16:19:21.630Z,21.72
2023-04-18T16:24:42.395Z,21.03
2023-04-18T16:30:05.077Z,20.61
2023-04-18T16:35:26.039Z,20.19
2023-04-18T16:40:46.531Z,19.75
2023-04-18T16:46:08.298Z,19.37
2023-04-18T16:51:28.820Z,18.92
2023-04-18T16:56:49.505Z,18.69
2023-04-18T17:02:10.356Z,18.41
2023-04-18T17:07:30.981Z,18.21
2023-04-18T17:12:51.693Z,18.63
2023-04-18T17:18:12.519Z,18.78
2023-04-18T17:23:33.398Z,18.72
2023-04-18T17:28:53.876Z,18.63
2023-04-18T17:34:14.732Z,18.41
2023-04-18T17:39:35.171Z,18.13
2023-04-18T17:44:56.260Z,17.84
2023-04-18T17:50:17.502Z,17.63
2023-04-18T17:55:40.227Z,17.31
2023-04-18T18:01:01.082Z,16.97
2023-04-18T18:06:21.803Z,16.76
2023-04-18T18:11:42.140Z,16.55
2023-04-18T18:17:02.707Z,16.36
2023-04-18T18:22:25.960Z,16.17
2023-04-18T18:27:47.000Z,15.91
2023-04-18T18:33:07.716Z,15.72
2023-04-18T18:38:28.089Z,15.46
2023-04-18T18:43:49.623Z,15.27
2023-04-18T18:49:10.060Z,15.07
2023-04-18T18:54:30.730Z,14.94
2023-04-18T18:59:52.474Z,14.43
2023-04-18T19:05:14.769Z,14.20
2023-04-18T19:10:35.376Z,13.79
2023-04-18T19:15:55.747Z,13.28
2023-04-18T19:21:17.374Z,13.00
2023-04-18T19:26:37.921Z,12.67
2023-04-18T19:31:58.872Z,12.41
2023-04-18T19:37:19.368Z,12.18
2023-04-18T19:42:39.891Z,12.02
2023-04-18T19:48:00.332Z,12.13
2023-04-18T19:53:21.240Z,11.90
2023-04-18T19:58:46.577Z,11.71
2023-04-18T20:04:08.322Z,11.65
2023-04-18T20:09:29.088Z,11.55
2023-04-18T20:14:50.269Z,11.51
2023-04-18T20:20:11.575Z,11.43
2023-04-18T20:25:33.570Z,11.19
2023-04-18T20:30:54.515Z,11.14
2023-04-18T20:36:17.514Z,10.95
2023-04-18T20:41:38.444Z,10.86
2023-04-18T20:46:59.350Z,10.82
2023-04-18T20:52:19.933Z,10.62
2023-04-18T20:57:40.865Z,10.81
2023-04-18T21:03:01.486Z,10.64
2023-04-18T21:08:22.143Z,10.60
2023-04-18T21:13:42.445Z,10.48
2023-04-18T21:19:03.081Z,10.58
2023-04-18T21:24:23.493Z,10.41
2023-04-18T21:29:44.247Z,10.33
2023-04-18T21:35:04.973Z,10.37
2023-04-18T21:40:30.717Z,10.32
2023-04-18T21:45:51.285Z,10.35
2023-04-18T21:51:15.235Z,10.35
2023-04-18T21:56:35.583Z,10.21
2023-04-18T22:01:56.799Z,10.15
2023-04-18T22:07:20.978Z,10.11
2023-04-18T22:12:42.376Z,10.09
2023-04-18T22:18:04.325Z,10.06
2023-04-18T22:23:26.232Z,10.02
2023-04-18T22:28:47.478Z,9.98
2023-04-18T22:34:07.881Z,9.94
2023-04-18T22:39:28.175Z,9.88
2023-04-18T22:44:48.469Z,9.83
2023-04-18T22:50:09.768Z,9.76
2023-04-18T22:55:30.459Z,9.81
2023-04-18T23:00:51.134Z,9.78
2023-04-18T23:06:12.066Z,9.80
2023-04-18T23:11:32.650Z,9.74
2023-04-18T23:16:53.661Z,9.68
2023-04-18T23:22:14.230Z,9.54
2023-04-18T23:27:34.847Z,9.35
2023-04-18T23:32:55.217Z,9.34
2023-04-18T23:38:15.460Z,9.14
2023-04-18T23:43:35.767Z,9.07
2023-04-18T23:48:56.300Z,9.03
2023-04-18T23:54:17.032Z,9.10
2023-04-18T23:59:37.550Z,9.22
